createdAt,value
2022-11-13T00:02:21.947Z,50.20
2022-11-13T00:05:11.783Z,50.90
2022-11-13T00:08:01.469Z,52.30
2022-11-13T00:10:51.779Z,56.10
2022-11-13T00:13:41.112Z,59.70
2022-11-13T00:16:30.534Z,47.50
2022-11-13T00:19:19.962Z,58.70
2022-11-13T00:22:09.741Z,46.30
2022-11-13T00:24:59.113Z,50.90
2022-11-13T00:27:48.900Z,51.60
2022-11-13T00:30:38.278Z,53.60
2022-11-13T00:33:55.095Z,50.00
2022-11-13T00:36:37.276Z,55.20
2022-11-13T00:39:27.189Z,51.00
2022-11-13T00:42:17.040Z,51.20
2022-11-13T00:45:09.382Z,51.40
2022-11-13T00:47:58.899Z,47.50
2022-11-13T00:50:48.479Z,49.20
2022-11-13T00:53:38.309Z,48.70
2022-11-13T00:56:28.115Z,50.80
2022-11-13T00:59:17.282Z,51.70
2022-11-13T01:02:06.790Z,57.50
2022-11-13T01:04:56.059Z,48.60
2022-11-13T01:07:45.598Z,50.20
2022-11-13T01:10:35.766Z,52.90
2022-11-13T01:13:25.231Z,51.80
2022-11-13T01:16:15.464Z,49.50
2022-11-13T01:19:05.093Z,53.10
2022-11-13T01:21:54.573Z,56.10
2022-11-13T01:24:43.849Z,54.20
2022-11-13T01:27:33.006Z,58.40
2022-11-13T01:30:22.167Z,51.70
2022-11-13T01:33:12.180Z,47.70
2022-11-13T01:36:05.766Z,48.80
2022-11-13T01:41:43.566Z,50.90
2022-11-13T01:44:46.884Z,50.50
2022-11-13T01:47:37.434Z,49.40
2022-11-13T01:50:27.431Z,58.00
2022-11-13T01:53:17.098Z,51.10
2022-11-13T01:56:07.719Z,55.40
2022-11-13T01:58:59.859Z,49.50
2022-11-13T02:01:49.833Z,57.50
2022-11-13T02:04:39.196Z,54.10
2022-11-13T02:07:28.657Z,54.80
2022-11-13T02:10:18.853Z,55.40
2022-11-13T02:13:08.315Z,53.80
2022-11-13T02:15:58.036Z,56.90
2022-11-13T02:18:47.877Z,50.50
2022-11-13T02:21:39.732Z,57.60
2022-11-13T02:24:32.646Z,55.30
2022-11-13T02:27:30.727Z,50.00
2022-11-13T02:30:26.491Z,53.00
2022-11-13T02:33:23.086Z,51.20
2022-11-13T02:36:13.074Z,50.90
2022-11-13T02:39:04.520Z,53.50
2022-11-13T02:41:54.272Z,55.60
2022-11-13T02:44:43.640Z,56.40
2022-11-13T02:47:32.711Z,50.10
2022-11-13T02:50:23.007Z,47.50
2022-11-13T02:53:12.287Z,53.10
2022-11-13T02:56:01.643Z,54.30
2022-11-13T02:58:50.801Z,57.20
2022-11-13T03:01:40.121Z,49.80
2022-11-13T03:04:50.161Z,50.80
2022-11-13T03:07:39.387Z,50.50
2022-11-13T03:10:28.756Z,49.40
2022-11-13T03:13:17.943Z,49.40
2022-11-13T03:16:12.268Z,52.20
2022-11-13T03:19:01.307Z,63.10
2022-11-13T03:21:50.530Z,56.90
2022-11-13T03:24:40.146Z,57.10
2022-11-13T03:27:31.436Z,55.20
2022-11-13T03:30:21.510Z,56.00
2022-11-13T03:33:10.679Z,57.70
2022-11-13T03:36:00.206Z,57.70
2022-11-13T03:38:49.213Z,62.80
2022-11-13T03:41:38.796Z,66.00
2022-11-13T03:44:28.075Z,64.60
2022-11-13T03:47:17.572Z,61.50
2022-11-13T03:50:07.412Z,59.80
2022-11-13T03:52:57.096Z,64.90
2022-11-13T03:55:47.788Z,56.70
2022-11-13T03:58:40.080Z,62.90
2022-11-13T04:01:30.089Z,58.30
2022-11-13T04:04:20.096Z,59.00
2022-11-13T04:07:09.128Z,60.40
2022-11-13T04:09:58.874Z,66.40
2022-11-13T04:12:48.517Z,62.20
2022-11-13T04:15:37.937Z,63.10
2022-11-13T04:18:27.063Z,57.90
2022-11-13T04:21:17.337Z,64.60
2022-11-13T04:24:07.118Z,65.10
2022-11-13T04:26:56.697Z,58.10
2022-11-13T04:29:45.756Z,57.70
2022-11-13T04:32:35.351Z,61.90
2022-11-13T04:35:24.964Z,62.80
2022-11-13T04:38:14.690Z,60.70
2022-11-13T04:41:30.168Z,57.20
2022-11-13T04:44:19.436Z,56.90
2022-11-13T04:47:09.252Z,56.90
2022-11-13T04:49:58.689Z,61.40
2022-11-13T04:52:49.200Z,60.00
2022-11-13T04:55:38.654Z,63.50
2022-11-13T04:58:28.308Z,58.80
2022-11-13T05:01:17.971Z,57.00
2022-11-13T05:04:07.721Z,59.30
2022-11-13T05:06:56.693Z,51.80
2022-11-13T05:09:46.254Z,53.90
2022-11-13T05:12:37.026Z,56.80
2022-11-13T05:15:26.711Z,55.10
2022-11-13T05:18:15.775Z,54.80
2022-11-13T05:21:05.340Z,56.20
2022-11-13T05:23:54.858Z,61.70
2022-11-13T05:26:44.278Z,55.10
2022-11-13T05:29:33.857Z,54.50
2022-11-13T05:32:23.434Z,50.40
2022-11-13T05:35:12.703Z,54.20
2022-11-13T05:38:03.130Z,50.30
2022-11-13T05:40:52.602Z,52.40
2022-11-13T05:43:42.543Z,60.30
2022-11-13T05:46:32.199Z,57.50
2022-11-13T05:49:21.421Z,59.40
2022-11-13T05:52:10.350Z,48.00
2022-11-13T05:54:59.931Z,46.80
2022-11-13T05:57:49.209Z,50.40
2022-11-13T06:00:38.900Z,50.30
2022-11-13T06:03:28.250Z,52.50
2022-11-13T06:06:18.739Z,55.30
2022-11-13T06:09:08.347Z,56.90
2022-11-13T06:11:57.990Z,61.10
2022-11-13T06:14:47.256Z,54.40
2022-11-13T06:17:36.933Z,61.80
2022-11-13T06:20:26.342Z,48.60
2022-11-13T06:23:15.691Z,56.20
2022-11-13T06:26:06.171Z,54.30
2022-11-13T06:28:55.662Z,47.60
2022-11-13T06:31:44.722Z,50.90
2022-11-13T06:34:34.005Z,53.90
2022-11-13T06:37:23.496Z,56.90
2022-11-13T06:40:14.418Z,54.30
2022-11-13T06:43:03.653Z,58.80
2022-11-13T06:45:53.422Z,55.70
2022-11-13T06:48:43.224Z,55.20
2022-11-13T06:51:33.062Z,49.90
2022-11-13T06:54:21.977Z,54.00
2022-11-13T06:57:11.797Z,54.50
2022-11-13T07:00:01.069Z,56.70
2022-11-13T07:02:51.290Z,57.70
2022-11-13T07:05:40.740Z,50.90
2022-11-13T07:08:30.697Z,54.90
2022-11-13T07:11:20.915Z,55.50
2022-11-13T07:14:12.573Z,47.40
2022-11-13T07:17:10.387Z,49.00
2022-11-13T07:20:00.695Z,55.50
2022-11-13T07:22:50.160Z,47.20
2022-11-13T07:25:39.361Z,47.00
2022-11-13T07:28:28.787Z,47.90
2022-11-13T07:31:19.423Z,52.10
2022-11-13T07:34:08.598Z,48.60
2022-11-13T07:37:00.350Z,44.80
2022-11-13T07:39:49.388Z,50.90
2022-11-13T07:42:39.228Z,46.00
2022-11-13T07:45:29.356Z,44.60
2022-11-13T07:48:18.822Z,43.70
2022-11-13T07:51:07.749Z,48.50
2022-11-13T07:53:57.891Z,52.50
2022-11-13T07:56:48.645Z,50.50
2022-11-13T07:59:38.547Z,50.00
2022-11-13T08:02:27.789Z,50.30
2022-11-13T08:05:17.923Z,50.70
2022-11-13T08:08:07.911Z,56.00
2022-11-13T08:10:58.383Z,51.20
2022-11-13T08:13:49.177Z,52.70
2022-11-13T08:16:39.074Z,51.80
2022-11-13T08:19:28.045Z,47.40
2022-11-13T08:22:17.882Z,46.80
2022-11-13T08:25:06.915Z,48.10
2022-11-13T08:27:57.560Z,54.70
2022-11-13T08:30:47.333Z,54.30
2022-11-13T08:33:36.904Z,60.50
2022-11-13T08:36:25.863Z,52.40
2022-11-13T08:39:15.633Z,52.80
2022-11-13T08:42:05.113Z,58.50
2022-11-13T08:44:55.716Z,52.90
2022-11-13T08:47:45.080Z,48.10
2022-11-13T08:50:35.680Z,45.50
2022-11-13T08:53:25.251Z,55.80
2022-11-13T08:56:15.238Z,53.60
2022-11-13T08:59:04.406Z,48.00
2022-11-13T09:01:58.686Z,42.60
2022-11-13T09:04:48.028Z,43.40
2022-11-13T09:07:37.938Z,43.70
2022-11-13T09:10:27.451Z,42.70
2022-11-13T09:13:17.499Z,54.70
2022-11-13T09:16:07.053Z,57.30
2022-11-13T09:18:56.679Z,49.30
2022-11-13T09:21:47.758Z,58.50
2022-11-13T09:24:37.263Z,51.80
2022-11-13T09:27:26.298Z,47.90
2022-11-13T09:30:16.617Z,47.10
2022-11-13T09:33:05.549Z,43.50
2022-11-13T09:35:55.340Z,45.00
2022-11-13T09:38:44.602Z,45.80
2022-11-13T09:41:36.348Z,48.50
2022-11-13T09:44:30.296Z,46.40
2022-11-13T09:47:21.712Z,44.30
2022-11-13T09:50:15.182Z,45.50
2022-11-13T09:53:05.291Z,41.40
2022-11-13T09:55:58.218Z,45.60
2022-11-13T09:58:49.802Z,47.20
2022-11-13T10:01:43.822Z,45.40
2022-11-13T10:04:42.100Z,47.80
2022-11-13T10:07:36.032Z,48.00
2022-11-13T10:10:48.197Z,46.20
2022-11-13T10:13:43.795Z,44.90
2022-11-13T10:16:36.137Z,44.10
2022-11-13T10:19:28.472Z,45.30
2022-11-13T10:22:36.572Z,41.90
2022-11-13T10:25:28.138Z,47.00
2022-11-13T10:28:48.760Z,54.20
2022-11-13T10:31:27.838Z,48.80
2022-11-13T10:34:18.179Z,50.60
2022-11-13T10:37:18.421Z,53.00
2022-11-13T10:40:08.848Z,49.60
2022-11-13T10:43:05.800Z,55.20
2022-11-13T10:45:59.260Z,54.40
2022-11-13T10:48:48.435Z,56.50
2022-11-13T10:51:39.637Z,53.60
2022-11-13T10:54:29.746Z,53.00
2022-11-13T10:57:26.168Z,49.00
2022-11-13T11:00:25.828Z,57.70
2022-11-13T11:03:19.456Z,47.40
2022-11-13T11:06:08.819Z,51.10
2022-11-13T11:09:06.213Z,52.30
2022-11-13T11:12:22.033Z,51.00
2022-11-13T11:15:20.280Z,49.50
2022-11-13T11:18:15.534Z,55.00
2022-11-13T11:21:09.059Z,48.50
2022-11-13T11:24:01.561Z,53.30
2022-11-13T11:26:54.687Z,49.20
2022-11-13T11:29:47.592Z,54.00
2022-11-13T11:32:40.161Z,51.10
2022-11-13T11:35:33.997Z,50.80
2022-11-13T11:38:28.667Z,49.20
2022-11-13T11:41:20.207Z,56.00
2022-11-13T11:44:16.075Z,50.80
2022-11-13T11:47:05.092Z,49.00
2022-11-13T11:49:54.631Z,51.40
2022-11-13T11:52:48.583Z,52.10
2022-11-13T11:55:44.475Z,53.30
2022-11-13T11:58:41.486Z,53.30
2022-11-13T12:01:36.736Z,53.70
2022-11-13T12:04:33.910Z,55.60
2022-11-13T12:07:30.146Z,52.20
2022-11-13T12:10:25.704Z,53.60
2022-11-13T12:13:21.225Z,58.80
2022-11-13T12:16:14.607Z,54.20
2022-11-13T12:19:06.117Z,57.80
2022-11-13T12:22:00.579Z,58.10
2022-11-13T12:24:59.890Z,53.10
2022-11-13T12:27:54.429Z,53.80
2022-11-13T12:30:47.947Z,55.40
2022-11-13T12:33:40.306Z,53.30
2022-11-13T12:36:30.193Z,54.50
2022-11-13T12:39:29.917Z,50.50
2022-11-13T12:42:21.472Z,46.10
2022-11-13T12:45:15.365Z,49.00
2022-11-13T12:48:11.074Z,50.50
2022-11-13T12:51:01.679Z,47.40
2022-11-13T12:53:52.363Z,54.50
2022-11-13T12:56:41.283Z,50.30
2022-11-13T12:59:34.888Z,49.70
2022-11-13T13:02:31.140Z,53.00
2022-11-13T13:05:25.114Z,60.80
2022-11-13T13:11:11.702Z,67.30
2022-11-13T13:14:10.485Z,75.50
2022-11-13T13:17:07.779Z,62.00
2022-11-13T13:20:00.987Z,62.30
2022-11-13T13:22:58.172Z,58.90
2022-11-13T13:25:47.612Z,57.90
2022-11-13T13:28:40.194Z,60.00
2022-11-13T13:31:37.511Z,58.80
2022-11-13T13:34:35.092Z,57.20
2022-11-13T13:37:30.622Z,56.60
2022-11-13T13:40:28.789Z,53.10
2022-11-13T13:43:24.831Z,56.10
2022-11-13T13:46:16.476Z,60.40
2022-11-13T13:49:06.189Z,57.60
2022-11-13T13:51:57.002Z,48.30
2022-11-13T13:54:46.775Z,45.90
2022-11-13T13:57:41.586Z,46.20
2022-11-13T14:00:30.545Z,51.80
2022-11-13T14:03:21.842Z,50.40
2022-11-13T14:06:11.761Z,47.10
2022-11-13T14:09:09.853Z,43.30
2022-11-13T14:12:00.746Z,46.50
2022-11-13T14:14:51.127Z,43.50
2022-11-13T14:17:40.962Z,43.80
2022-11-13T14:20:30.919Z,41.30
2022-11-13T14:23:21.675Z,41.30
2022-11-13T14:26:12.221Z,48.30
2022-11-13T14:29:02.360Z,42.50
2022-11-13T14:31:52.368Z,48.30
2022-11-13T14:34:44.472Z,45.50
2022-11-13T14:37:35.274Z,37.90
2022-11-13T14:40:26.438Z,37.30
2022-11-13T14:43:18.527Z,37.20
2022-11-13T14:46:23.967Z,38.60
2022-11-13T14:49:15.662Z,36.30
2022-11-13T14:52:07.180Z,38.90
2022-11-13T14:55:15.757Z,34.90
2022-11-13T14:58:05.616Z,36.40
2022-11-13T15:00:58.261Z,36.90
2022-11-13T15:03:48.026Z,36.70
2022-11-13T15:06:40.592Z,41.90
2022-11-13T15:09:31.062Z,41.10
2022-11-13T15:12:20.924Z,38.20
2022-11-13T15:15:14.542Z,38.50
2022-11-13T15:18:04.249Z,33.80
2022-11-13T15:20:53.173Z,34.00
2022-11-13T15:23:42.588Z,37.30
2022-11-13T15:26:31.783Z,40.00
2022-11-13T15:29:21.788Z,38.70
2022-11-13T15:32:12.434Z,42.50
2022-11-13T15:35:02.281Z,42.40
2022-11-13T15:37:51.270Z,38.10
2022-11-13T15:40:41.013Z,41.80
2022-11-13T15:43:30.674Z,37.00
2022-11-13T15:46:21.084Z,40.90
2022-11-13T15:49:10.357Z,44.70
2022-11-13T15:51:59.701Z,46.30
2022-11-13T15:54:48.479Z,44.00
2022-11-13T15:57:39.131Z,49.40
2022-11-13T16:00:29.684Z,45.10
2022-11-13T16:03:19.867Z,48.60
2022-11-13T16:06:12.333Z,46.90
2022-11-13T16:09:02.230Z,52.60
2022-11-13T16:11:51.555Z,49.40
2022-11-13T16:14:40.769Z,49.70
2022-11-13T16:17:30.007Z,50.50
2022-11-13T16:20:19.994Z,53.10
2022-11-13T16:23:15.444Z,61.30
2022-11-13T16:26:05.757Z,55.10
2022-11-13T16:32:05.904Z,61.40
2022-11-13T16:34:55.046Z,57.60
2022-11-13T16:37:44.762Z,60.10
2022-11-13T16:40:34.030Z,63.10
2022-11-13T16:43:24.112Z,64.10
2022-11-13T16:46:20.624Z,64.00
2022-11-13T16:49:17.196Z,54.80
2022-11-13T16:52:06.347Z,55.80
2022-11-13T16:54:57.721Z,56.00
2022-11-13T16:57:49.090Z,59.60
2022-11-13T17:00:38.978Z,63.30
2022-11-13T17:03:28.102Z,54.80
2022-11-13T17:06:23.181Z,58.10
2022-11-13T17:09:11.649Z,56.00
2022-11-13T17:12:01.346Z,61.00
2022-11-13T17:14:50.440Z,58.20
2022-11-13T17:17:40.829Z,57.20
2022-11-13T17:20:31.070Z,55.60
2022-11-13T17:23:20.596Z,56.80
2022-11-13T17:26:10.025Z,61.70
2022-11-13T17:29:02.164Z,55.50
2022-11-13T17:31:51.153Z,63.50
2022-11-13T17:34:40.428Z,57.30
2022-11-13T17:37:29.423Z,61.90
2022-11-13T17:40:19.373Z,59.50
2022-11-13T17:43:09.967Z,68.10
2022-11-13T17:46:00.049Z,64.00
2022-11-13T17:48:49.125Z,62.10
2022-11-13T17:51:38.985Z,67.20
2022-11-13T17:54:29.391Z,65.60
2022-11-13T17:57:21.596Z,62.40
2022-11-13T18:00:15.465Z,61.30
2022-11-13T18:03:05.102Z,61.20
2022-11-13T18:05:53.729Z,65.00
2022-11-13T18:08:44.139Z,58.30
2022-11-13T18:11:32.992Z,57.60
2022-11-13T18:14:22.764Z,64.30
2022-11-13T18:17:12.117Z,70.00
2022-11-13T18:20:02.289Z,72.70
2022-11-13T18:22:51.693Z,65.90
2022-11-13T18:25:41.402Z,65.50
2022-11-13T18:28:30.739Z,67.40
2022-11-13T18:31:20.928Z,63.80
2022-11-13T18:34:13.062Z,74.30
2022-11-13T18:37:02.469Z,68.80
2022-11-13T18:39:51.585Z,68.30
2022-11-13T18:42:41.426Z,71.60
2022-11-13T18:45:30.444Z,71.00
2022-11-13T18:48:20.024Z,73.80
2022-11-13T18:51:11.133Z,73.50
2022-11-13T18:54:05.454Z,69.00
2022-11-13T18:56:57.957Z,66.50
2022-11-13T18:59:47.462Z,69.90
2022-11-13T19:02:36.498Z,68.20
2022-11-13T19:05:27.394Z,68.60
2022-11-13T19:08:16.991Z,73.00
2022-11-13T19:11:07.721Z,81.20
2022-11-13T19:13:57.090Z,70.00
2022-11-13T19:16:47.239Z,72.80
2022-11-13T19:19:36.669Z,77.20
2022-11-13T19:22:26.182Z,71.40
2022-11-13T19:25:15.290Z,71.10
2022-11-13T19:28:05.427Z,74.10
2022-11-13T19:30:55.624Z,60.50
2022-11-13T19:33:46.184Z,67.30
2022-11-13T19:36:36.312Z,70.40
2022-11-13T19:39:26.372Z,73.10
2022-11-13T19:42:15.557Z,74.10
2022-11-13T19:45:05.187Z,80.40
2022-11-13T19:47:54.546Z,79.60
2022-11-13T19:50:47.461Z,84.20
2022-11-13T19:53:37.039Z,78.60
2022-11-13T19:56:28.659Z,87.00
2022-11-13T19:59:17.714Z,91.10
2022-11-13T20:02:07.647Z,78.60
2022-11-13T20:04:56.861Z,88.70
2022-11-13T20:07:46.273Z,80.40
2022-11-13T20:10:35.501Z,86.90
2022-11-13T20:13:25.323Z,75.60
2022-11-13T20:16:15.988Z,71.20
2022-11-13T20:19:05.787Z,73.40
2022-11-13T20:21:56.280Z,75.00
2022-11-13T20:24:45.970Z,72.60
2022-11-13T20:27:37.237Z,72.80
2022-11-13T20:30:27.388Z,79.60
2022-11-13T20:33:22.165Z,82.00
2022-11-13T20:36:12.603Z,76.30
2022-11-13T20:39:04.431Z,72.90
2022-11-13T20:41:58.192Z,74.60
2022-11-13T20:44:47.004Z,72.10
2022-11-13T20:47:36.679Z,71.50
2022-11-13T20:50:25.831Z,71.30
2022-11-13T20:53:15.398Z,64.60
2022-11-13T20:56:05.079Z,69.50
2022-11-13T20:58:54.805Z,69.40
2022-11-13T21:01:44.012Z,67.90
2022-11-13T21:04:34.520Z,73.60
2022-11-13T21:07:23.746Z,74.50
2022-11-13T21:10:13.459Z,70.60
2022-11-13T21:13:02.775Z,74.40
2022-11-13T21:15:52.726Z,71.70
2022-11-13T21:18:41.981Z,80.20
2022-11-13T21:21:32.171Z,73.50
2022-11-13T21:24:21.387Z,75.70
2022-11-13T21:27:11.161Z,73.40
2022-11-13T21:30:00.538Z,70.30
2022-11-13T21:32:50.338Z,70.50
2022-11-13T21:35:39.431Z,67.20
2022-11-13T21:38:29.252Z,71.30
2022-11-13T21:41:25.235Z,64.20
2022-11-13T21:44:15.340Z,66.10
2022-11-13T21:47:04.740Z,69.00
2022-11-13T21:49:54.845Z,63.10
2022-11-13T21:52:43.841Z,64.10
2022-11-13T21:55:33.623Z,64.10
2022-11-13T21:58:32.069Z,64.40
2022-11-13T22:01:23.625Z,55.50
2022-11-13T22:04:12.998Z,67.80
2022-11-13T22:07:02.971Z,55.20
2022-11-13T22:09:52.247Z,61.10
2022-11-13T22:12:41.781Z,54.50
2022-11-13T22:15:31.225Z,62.00
2022-11-13T22:18:21.186Z,66.90
2022-11-13T22:30:22.893Z,62.70
2022-11-13T22:33:11.748Z,71.80
2022-11-13T22:36:04.749Z,67.90
2022-11-13T22:38:54.188Z,65.30
2022-11-13T22:41:44.272Z,66.80
2022-11-13T22:44:54.405Z,61.10
2022-11-13T22:47:42.972Z,62.60
2022-11-13T22:50:32.146Z,62.50
2022-11-13T22:53:21.817Z,63.30
2022-11-13T22:56:13.048Z,68.70
2022-11-13T22:59:02.829Z,67.40
2022-11-13T23:01:52.076Z,65.60
2022-11-13T23:04:41.997Z,69.90
2022-11-13T23:07:31.473Z,67.40
2022-11-13T23:10:21.067Z,65.60
2022-11-13T23:13:10.576Z,70.90
2022-11-13T23:16:00.579Z,65.30
2022-11-13T23:18:50.598Z,69.20
2022-11-13T23:21:40.533Z,69.50
2022-11-13T23:24:29.855Z,61.90
2022-11-13T23:27:19.209Z,58.50
2022-11-13T23:30:09.886Z,63.50
2022-11-13T23:32:59.865Z,67.60
2022-11-13T23:35:49.123Z,60.80
2022-11-13T23:38:38.021Z,68.80
2022-11-13T23:41:27.419Z,69.50
2022-11-13T23:44:17.025Z,57.70
2022-11-13T23:47:06.496Z,60.30
2022-11-13T23:49:55.970Z,56.70
2022-11-13T23:52:45.346Z,59.60
2022-11-13T23:55:35.424Z,63.90
2022-11-13T23:58:24.487Z,60.20
